Time;durP1;ratioP1;P1;durP2;ratioP2;P2;SDS_P1;SDS_P2;PMS_P1;PMS_P2;Temp;Humidity;BMP_temperature;BMP_pressure;BME280_temperature;BME280_humidity;BME280_pressure;Samples;Min_cycle;Max_cycle;Signal;HPM_P1;HPM_P2
2021/06/07 00:00:25;;;;;;;5.87;4.63;;;17.50;92.00;;;;;;4362022;32;20736;-74
2021/06/07 00:02:53;;;;;;;9.20;4.40;;;17.40;92.10;;;;;;4361868;32;20221;-73
2021/06/07 00:05:20;;;;;;;6.93;4.37;;;17.40;92.30;;;;;;4364361;32;20218;-74
2021/06/07 00:07:47;;;;;;;6.37;4.43;;;17.30;92.60;;;;;;4367274;32;20237;-74
2021/06/07 00:10:17;;;;;;;7.77;4.60;;;17.30;92.90;;;;;;4362871;32;20211;-73
2021/06/07 00:12:44;;;;;;;6.67;4.47;;;17.30;93.00;;;;;;4367009;32;20152;-74
2021/06/07 00:15:14;;;;;;;8.90;4.63;;;17.20;93.00;;;;;;4382264;32;20482;-75
2021/06/07 00:17:41;;;;;;;7.77;4.60;;;17.20;93.10;;;;;;4379264;32;20227;-75
2021/06/07 00:20:15;;;;;;;9.43;4.50;;;17.20;93.30;;;;;;4382367;32;20144;-75
2021/06/07 00:22:42;;;;;;;6.77;4.40;;;17.10;93.30;;;;;;4382368;32;20170;-75
2021/06/07 00:25:10;;;;;;;7.70;4.83;;;17.10;93.50;;;;;;4382219;32;20144;-74
2021/06/07 00:27:37;;;;;;;6.63;4.53;;;17.00;93.70;;;;;;4380430;32;20183;-74
2021/06/07 00:30:06;;;;;;;6.50;4.83;;;17.00;94.00;;;;;;4380802;32;20215;-75
2021/06/07 00:32:33;;;;;;;7.13;4.60;;;17.00;94.20;;;;;;4380584;32;20453;-74
2021/06/07 00:35:00;;;;;;;6.13;4.43;;;16.90;94.50;;;;;;4380626;32;20136;-74
2021/06/07 00:37:27;;;;;;;6.43;4.70;;;16.90;94.60;;;;;;4380032;32;20159;-74
2021/06/07 00:39:53;;;;;;;7.10;5.50;;;16.90;95.00;;;;;;4381984;32;20389;-74
2021/06/07 00:42:21;;;;;;;8.77;5.10;;;16.90;95.30;;;;;;4380494;32;20135;-74
2021/06/07 00:44:48;;;;;;;8.47;4.90;;;16.80;96.30;;;;;;4381927;32;20523;-74
2021/06/07 00:47:16;;;;;;;7.83;5.00;;;16.80;96.60;;;;;;4381330;32;20132;-74
2021/06/07 00:49:44;;;;;;;8.87;5.40;;;16.80;96.90;;;;;;4381239;32;20418;-75
2021/06/07 00:52:10;;;;;;;8.17;5.33;;;16.70;97.20;;;;;;4381266;32;20156;-75
2021/06/07 00:54:37;;;;;;;6.20;4.87;;;16.70;97.70;;;;;;4380261;32;20172;-74
2021/06/07 00:57:04;;;;;;;11.30;5.60;;;16.70;98.20;;;;;;4381685;32;20234;-74
2021/06/07 00:59:31;;;;;;;8.70;5.40;;;16.60;98.80;;;;;;4380209;32;20132;-74
2021/06/07 01:01:58;;;;;;;8.37;5.53;;;16.60;99.30;;;;;;4380192;32;20190;-74
2021/06/07 01:04:25;;;;;;;7.90;5.63;;;16.60;99.90;;;;;;4380110;32;20430;-74
2021/06/07 01:06:52;;;;;;;7.43;5.53;;;16.50;99.90;;;;;;4380215;32;20519;-73
2021/06/07 01:09:19;;;;;;;7.83;5.63;;;16.50;99.90;;;;;;4379893;32;20205;-74
2021/06/07 01:11:46;;;;;;;13.83;6.00;;;16.50;99.90;;;;;;4380568;32;20162;-74
2021/06/07 01:14:13;;;;;;;9.23;5.80;;;16.50;99.90;;;;;;4379717;32;20152;-74
2021/06/07 01:16:39;;;;;;;7.27;5.30;;;16.50;99.90;;;;;;4381292;32;20178;-74
2021/06/07 01:19:08;;;;;;;7.27;5.00;;;16.40;99.90;;;;;;4379946;32;20412;-74
2021/06/07 01:21:35;;;;;;;6.70;5.40;;;16.40;99.90;;;;;;4381265;32;20242;-74
2021/06/07 01:24:03;;;;;;;7.67;5.30;;;16.40;99.90;;;;;;4379840;32;20128;-74
2021/06/07 01:26:29;;;;;;;10.57;5.97;;;16.40;99.90;;;;;;4379935;32;20438;-74
2021/06/07 01:28:56;;;;;;;7.50;5.63;;;16.30;99.90;;;;;;4379683;32;20425;-74
2021/06/07 01:31:23;;;;;;;6.77;5.60;;;16.30;99.90;;;;;;4381126;32;20143;-74
2021/06/07 01:33:53;;;;;;;6.50;5.23;;;16.30;99.90;;;;;;4380362;32;20136;-75
2021/06/07 01:36:20;;;;;;;8.37;5.50;;;16.30;99.90;;;;;;4379666;32;20417;-73
2021/06/07 01:38:48;;;;;;;8.57;5.53;;;16.30;99.90;;;;;;4379649;32;20139;-74
2021/06/07 01:41:17;;;;;;;10.03;5.13;;;16.20;99.90;;;;;;4381002;32;20174;-74
2021/06/07 01:43:45;;;;;;;9.27;5.57;;;16.30;99.90;;;;;;4365309;32;20210;-73
2021/06/07 01:46:12;;;;;;;7.00;5.27;;;16.30;99.90;;;;;;4379310;32;20453;-73
2021/06/07 01:48:39;;;;;;;6.03;5.13;;;16.30;99.90;;;;;;4380917;32;20181;-74
2021/06/07 01:51:07;;;;;;;6.40;5.00;;;16.30;99.90;;;;;;4380840;32;20412;-73
2021/06/07 01:53:35;;;;;;;7.33;5.57;;;16.20;99.90;;;;;;4380853;32;20136;-73
2021/06/07 01:56:06;;;;;;;7.40;5.00;;;16.20;99.90;;;;;;4366009;32;20144;-74
2021/06/07 01:58:34;;;;;;;8.67;5.33;;;16.20;99.90;;;;;;4379383;32;20157;-73
2021/06/07 02:01:05;;;;;;;7.30;5.20;;;16.20;99.90;;;;;;4380199;32;20226;-73
2021/06/07 02:03:33;;;;;;;6.73;5.10;;;16.10;99.90;;;;;;4380223;32;20445;-73
2021/06/07 02:06:02;;;;;;;7.33;5.60;;;16.10;99.90;;;;;;4379223;32;20160;-74
2021/06/07 02:08:30;;;;;;;8.83;5.20;;;16.00;99.90;;;;;;4379432;32;20159;-74
2021/06/07 02:11:19;;;;;;;8.47;5.20;;;16.10;99.90;;;;;;4379010;32;20151;-74
2021/06/07 02:13:48;;;;;;;7.40;5.20;;;16.00;99.90;;;;;;4378951;32;20183;-74
2021/06/07 02:16:18;;;;;;;6.17;5.03;;;16.00;99.90;;;;;;4379109;32;20186;-74
2021/06/07 02:18:45;;;;;;;8.03;5.30;;;15.90;99.90;;;;;;4380540;32;20210;-74
2021/06/07 02:21:16;;;;;;;7.33;4.87;;;15.90;99.90;;;;;;4380368;32;20386;-73
2021/06/07 02:23:44;;;;;;;8.03;5.10;;;15.90;99.90;;;;;;4379025;32;20158;-74
2021/06/07 02:26:11;;;;;;;6.47;4.77;;;15.90;99.90;;;;;;4380424;32;20190;-74
2021/06/07 02:28:38;;;;;;;6.73;4.93;;;15.90;99.90;;;;;;4380429;32;20140;-74
2021/06/07 02:31:05;;;;;;;7.47;4.70;;;15.80;99.90;;;;;;4380349;32;20167;-74
2021/06/07 02:33:32;;;;;;;7.47;5.03;;;15.80;99.90;;;;;;4378944;32;20193;-73
2021/06/07 02:35:59;;;;;;;8.60;5.10;;;15.80;99.90;;;;;;4378961;32;20408;-73
2021/06/07 02:38:26;;;;;;;6.67;5.00;;;15.80;99.90;;;;;;4378926;32;20135;-74
2021/06/07 02:40:53;;;;;;;6.63;5.03;;;15.90;99.90;;;;;;4378903;32;20203;-74
2021/06/07 02:43:21;;;;;;;7.67;5.00;;;15.90;99.90;;;;;;4378948;32;20144;-74
2021/06/07 02:45:48;;;;;;;7.93;4.90;;;15.90;99.90;;;;;;4380829;32;20149;-74
2021/06/07 02:48:16;;;;;;;5.93;4.77;;;15.90;99.90;;;;;;4378988;32;20439;-74
2021/06/07 02:50:45;;;;;;;7.77;4.77;;;15.90;99.90;;;;;;4379162;32;20143;-74
2021/06/07 02:53:14;;;;;;;8.73;4.80;;;15.90;99.90;;;;;;4378972;32;20223;-74
2021/06/07 02:55:50;;;;;;;8.17;5.00;;;15.90;99.90;;;;;;4380594;32;20190;-74
2021/06/07 02:58:19;;;;;;;7.60;4.87;;;16.00;99.90;;;;;;4382932;32;20446;-74
2021/06/07 03:00:55;;;;;;;7.70;4.60;;;16.00;99.90;;;;;;4382055;32;20136;-74
2021/06/07 03:03:22;;;;;;;7.83;4.40;;;16.10;99.90;;;;;;4381479;32;20493;-74
2021/06/07 03:05:51;;;;;;;6.37;4.50;;;16.10;99.90;;;;;;4381447;32;20556;-74
2021/06/07 03:08:24;;;;;;;7.17;4.67;;;16.10;99.90;;;;;;4381149;32;20485;-74
2021/06/07 03:10:54;;;;;;;6.97;4.63;;;16.10;99.90;;;;;;4382966;32;20155;-74
2021/06/07 03:13:23;;;;;;;8.93;4.63;;;16.10;99.90;;;;;;4380957;32;20213;-74
2021/06/07 03:15:55;;;;;;;9.00;4.63;;;16.10;99.90;;;;;;4380822;32;20141;-74
2021/06/07 03:18:23;;;;;;;7.03;4.40;;;16.20;99.90;;;;;;4380753;32;20207;-75
2021/06/07 03:20:51;;;;;;;8.13;4.70;;;16.20;99.90;;;;;;4382102;32;20144;-75
2021/06/07 03:23:20;;;;;;;6.23;4.40;;;16.20;99.90;;;;;;4380035;32;20466;-74
2021/06/07 03:25:49;;;;;;;6.93;4.50;;;16.20;99.90;;;;;;4381831;32;20136;-74
2021/06/07 03:28:18;;;;;;;5.37;4.20;;;16.20;99.90;;;;;;4382055;32;20186;-74
2021/06/07 03:30:45;;;;;;;8.23;4.60;;;16.30;99.90;;;;;;4380541;32;20432;-74
2021/06/07 03:33:13;;;;;;;5.70;4.40;;;16.30;99.90;;;;;;4380562;32;20148;-74
2021/06/07 03:35:42;;;;;;;7.70;4.53;;;16.30;99.90;;;;;;4380616;32;20371;-75
2021/06/07 03:38:10;;;;;;;7.80;4.50;;;16.40;99.90;;;;;;4381968;32;20232;-74
2021/06/07 03:40:39;;;;;;;6.40;4.50;;;16.40;99.90;;;;;;4381374;32;20470;-74
2021/06/07 03:43:07;;;;;;;6.40;4.13;;;16.40;99.90;;;;;;4380378;32;20148;-75
2021/06/07 03:45:35;;;;;;;6.23;4.20;;;16.50;99.90;;;;;;4380646;32;20234;-75
2021/06/07 03:48:03;;;;;;;5.37;4.30;;;16.50;99.90;;;;;;4379448;32;20174;-75
2021/06/07 03:50:31;;;;;;;5.53;4.20;;;16.50;99.90;;;;;;4378166;32;20179;-75
2021/06/07 03:52:58;;;;;;;5.07;4.20;;;16.50;99.90;;;;;;4380370;32;20163;-75
2021/06/07 03:55:27;;;;;;;5.37;3.97;;;16.50;99.90;;;;;;4381654;32;20458;-75
2021/06/07 03:57:55;;;;;;;5.27;4.10;;;16.60;99.90;;;;;;4381650;32;20382;-74
2021/06/07 04:00:28;;;;;;;6.63;4.30;;;16.60;99.90;;;;;;4380214;32;20157;-74
2021/06/07 04:02:56;;;;;;;5.77;4.33;;;16.60;99.90;;;;;;4381861;32;20186;-75
2021/06/07 04:05:24;;;;;;;7.97;4.30;;;16.60;99.90;;;;;;4380176;32;20457;-74
2021/06/07 04:07:52;;;;;;;6.83;3.90;;;16.60;99.90;;;;;;4380293;32;20147;-75
2021/06/07 04:10:21;;;;;;;5.10;4.00;;;16.50;99.90;;;;;;4380315;32;20492;-75
2021/06/07 04:12:49;;;;;;;5.53;4.03;;;16.50;99.90;;;;;;4379986;32;20152;-75
2021/06/07 04:15:20;;;;;;;4.80;3.80;;;16.60;99.90;;;;;;4382464;32;20416;-75
2021/06/07 04:17:48;;;;;;;5.73;3.90;;;16.60;99.90;;;;;;4381935;32;20166;-75
2021/06/07 04:20:16;;;;;;;7.57;4.17;;;16.70;99.90;;;;;;4380812;32;20151;-75
2021/06/07 04:22:46;;;;;;;6.43;4.23;;;16.80;99.90;;;;;;4382115;32;20140;-75
2021/06/07 04:25:16;;;;;;;4.50;3.80;;;16.90;99.90;;;;;;4381624;32;20220;-75
2021/06/07 04:27:44;;;;;;;6.50;4.10;;;16.90;99.90;;;;;;4382354;32;20135;-75
2021/06/07 04:30:14;;;;;;;6.10;4.10;;;16.90;99.90;;;;;;4381739;32;20152;-74
2021/06/07 04:32:43;;;;;;;6.00;4.03;;;16.90;99.90;;;;;;4379625;32;20164;-74
2021/06/07 04:35:12;;;;;;;5.27;3.87;;;16.90;99.90;;;;;;4378868;32;20156;-74
2021/06/07 04:37:42;;;;;;;6.97;4.30;;;16.90;99.90;;;;;;4379733;32;20183;-75
2021/06/07 04:40:11;;;;;;;6.03;4.00;;;16.80;99.90;;;;;;4380606;32;20151;-75
2021/06/07 04:42:39;;;;;;;5.40;3.80;;;16.90;99.90;;;;;;4381837;32;20198;-74
2021/06/07 04:45:07;;;;;;;5.77;3.93;;;16.90;99.90;;;;;;4381612;32;20148;-74
2021/06/07 04:47:34;;;;;;;5.20;4.13;;;16.90;99.90;;;;;;4380355;32;20140;-75
2021/06/07 04:50:03;;;;;;;4.97;4.03;;;16.80;99.90;;;;;;4380283;32;20231;-75
2021/06/07 04:52:30;;;;;;;8.27;4.30;;;16.90;99.90;;;;;;4380292;32;20136;-75
2021/06/07 04:54:56;;;;;;;7.70;4.50;;;16.90;99.90;;;;;;4380047;32;20152;-74
2021/06/07 04:57:23;;;;;;;7.47;4.23;;;16.90;99.90;;;;;;4380193;32;20152;-74
2021/06/07 04:59:50;;;;;;;10.53;4.40;;;17.00;99.90;;;;;;4380259;32;20136;-74
2021/06/07 05:02:17;;;;;;;5.93;3.80;;;17.00;99.90;;;;;;4380116;32;20199;-74
2021/06/07 05:04:44;;;;;;;6.10;4.27;;;17.00;99.90;;;;;;4380218;32;20152;-74
2021/06/07 05:07:11;;;;;;;5.20;3.80;;;17.10;99.90;;;;;;4381545;32;20215;-74
2021/06/07 05:09:38;;;;;;;8.60;4.37;;;17.20;99.90;;;;;;4380082;32;20132;-74
2021/06/07 05:12:07;;;;;;;8.10;4.00;;;17.30;99.90;;;;;;4380994;32;20512;-74
2021/06/07 05:14:34;;;;;;;6.73;4.10;;;17.40;99.90;;;;;;4379901;32;20156;-74
2021/06/07 05:17:01;;;;;;;6.00;4.30;;;17.50;99.90;;;;;;4380051;32;20151;-74
2021/06/07 05:19:28;;;;;;;6.33;3.73;;;17.60;99.00;;;;;;4379273;32;20143;-74
2021/06/07 05:21:55;;;;;;;5.40;3.63;;;17.70;97.70;;;;;;4380143;32;20215;-75
2021/06/07 05:24:22;;;;;;;5.30;3.63;;;17.70;97.00;;;;;;4380925;32;20404;-75
2021/06/07 05:26:49;;;;;;;5.60;3.10;;;17.90;96.60;;;;;;4379801;32;20186;-74
2021/06/07 05:29:15;;;;;;;6.77;3.40;;;18.00;96.40;;;;;;4379689;32;20500;-74
2021/06/07 05:31:42;;;;;;;5.97;3.87;;;18.00;95.10;;;;;;4379647;32;20532;-74
2021/06/07 05:34:09;;;;;;;4.83;3.40;;;18.10;95.00;;;;;;4379657;32;20198;-74
2021/06/07 05:36:36;;;;;;;6.27;4.00;;;18.20;95.10;;;;;;4380072;32;20139;-75
2021/06/07 05:39:03;;;;;;;5.57;3.83;;;18.30;95.20;;;;;;4379642;32;20148;-74
2021/06/07 05:41:30;;;;;;;6.20;3.70;;;18.40;95.00;;;;;;4379923;32;20174;-75
2021/06/07 05:43:57;;;;;;;4.67;3.37;;;18.60;95.10;;;;;;4379579;32;20187;-75
2021/06/07 05:46:24;;;;;;;6.00;3.53;;;18.70;94.60;;;;;;4379256;32;20189;-76
2021/06/07 05:48:52;;;;;;;6.67;4.20;;;18.70;94.50;;;;;;4380762;32;20156;-81
2021/06/07 05:51:19;;;;;;;5.60;3.70;;;18.80;95.80;;;;;;4379245;32;20214;-76
2021/06/07 05:53:46;;;;;;;5.10;3.23;;;18.80;94.60;;;;;;4380792;32;20198;-77
2021/06/07 05:56:13;;;;;;;6.77;3.40;;;18.90;95.40;;;;;;4365839;32;20140;-77
2021/06/07 05:58:39;;;;;;;6.47;3.40;;;18.90;96.60;;;;;;4379272;32;20178;-77
2021/06/07 06:01:06;;;;;;;8.87;3.97;;;18.90;94.40;;;;;;4379564;32;20140;-77
2021/06/07 06:03:37;;;;;;;5.77;3.83;;;19.00;94.50;;;;;;4381007;32;20222;-77
2021/06/07 06:06:04;;;;;;;11.40;3.73;;;19.00;94.60;;;;;;4380181;32;20537;-77
2021/06/07 06:08:31;;;;;;;8.07;3.77;;;19.10;94.50;;;;;;4379498;32;20148;-77
2021/06/07 06:10:58;;;;;;;4.63;3.33;;;19.10;95.10;;;;;;4380133;32;20160;-77
2021/06/07 06:13:47;;;;;;;5.67;3.23;;;19.20;94.60;;;;;;4379278;32;20156;-77
2021/06/07 06:16:15;;;;;;;6.90;3.80;;;19.30;93.10;;;;;;4378339;32;20535;-76
2021/06/07 06:18:42;;;;;;;7.67;3.27;;;19.20;94.50;;;;;;4380462;32;20140;-76
2021/06/07 06:21:09;;;;;;;6.73;3.40;;;19.40;92.00;;;;;;4380015;32;20172;-77
2021/06/07 06:23:38;;;;;;;6.50;3.40;;;19.40;92.80;;;;;;4380383;32;20199;-77
2021/06/07 06:26:07;;;;;;;6.63;3.60;;;19.50;92.70;;;;;;4378695;32;20132;-77
2021/06/07 06:28:35;;;;;;;7.43;3.90;;;19.60;92.10;;;;;;4378760;32;20193;-77
2021/06/07 06:31:06;;;;;;;5.60;3.50;;;19.70;91.70;;;;;;4379785;32;20227;-77
2021/06/07 06:33:34;;;;;;;6.90;3.20;;;19.70;92.90;;;;;;4378802;32;20151;-77
2021/06/07 06:36:01;;;;;;;7.27;3.37;;;19.80;92.20;;;;;;4378809;32;20381;-77
2021/06/07 06:38:28;;;;;;;6.37;3.40;;;19.90;92.80;;;;;;4378582;32;20428;-77
2021/06/07 06:40:56;;;;;;;9.20;3.40;;;19.90;92.70;;;;;;4380060;32;20164;-77
2021/06/07 06:43:23;;;;;;;6.67;3.17;;;20.00;91.00;;;;;;4378586;32;20156;-77
2021/06/07 06:45:51;;;;;;;7.80;3.30;;;20.10;91.90;;;;;;4377855;32;20148;-77
2021/06/07 06:48:18;;;;;;;5.20;3.50;;;20.10;90.00;;;;;;4377029;32;20552;-78
2021/06/07 06:50:46;;;;;;;6.67;3.53;;;20.20;93.40;;;;;;4363256;32;20155;-78
2021/06/07 06:53:19;;;;;;;7.70;3.40;;;20.30;90.70;;;;;;4377344;32;20167;-78
2021/06/07 06:55:47;;;;;;;10.00;3.50;;;20.50;90.50;;;;;;4380015;32;20238;-78
2021/06/07 06:58:15;;;;;;;5.73;3.23;;;20.40;91.50;;;;;;4378351;32;20159;-78
2021/06/07 07:00:42;;;;;;;8.37;3.20;;;20.40;90.40;;;;;;4379007;32;20517;-79
2021/06/07 07:03:13;;;;;;;4.33;3.20;;;20.40;89.70;;;;;;4378636;32;20183;-79
2021/06/07 07:05:41;;;;;;;5.77;3.60;;;20.40;86.50;;;;;;4379662;32;20215;-80
2021/06/07 07:08:08;;;;;;;4.03;3.10;;;20.50;90.80;;;;;;4378713;32;20148;-80
2021/06/07 07:10:36;;;;;;;5.33;3.60;;;20.50;90.70;;;;;;4378478;32;20152;-81
2021/06/07 07:13:04;;;;;;;4.53;3.43;;;20.60;88.40;;;;;;4378376;32;20164;-82
2021/06/07 07:15:32;;;;;;;5.90;3.17;;;20.70;87.00;;;;;;4379131;32;20178;-83
2021/06/07 07:17:59;;;;;;;5.47;3.80;;;20.80;89.70;;;;;;4378392;32;20148;-83
2021/06/07 07:20:27;;;;;;;5.73;3.10;;;20.90;87.30;;;;;;4377957;32;20148;-83
2021/06/07 07:22:54;;;;;;;6.00;3.37;;;20.90;87.30;;;;;;4378669;32;20162;-84
2021/06/07 07:25:21;;;;;;;6.50;3.20;;;20.90;86.10;;;;;;4378615;32;20156;-84
2021/06/07 07:27:49;;;;;;;5.27;3.20;;;20.90;85.20;;;;;;4349955;32;20175;-85
2021/06/07 07:30:19;;;;;;;4.73;3.20;;;21.00;85.50;;;;;;4377988;32;20228;-85
2021/06/07 07:32:48;;;;;;;4.60;3.10;;;21.10;88.40;;;;;;4377972;32;20148;-89
2021/06/07 07:35:16;;;;;;;5.93;3.27;;;21.30;81.30;;;;;;4379479;32;20140;-89
2021/06/07 07:37:44;;;;;;;6.03;3.30;;;21.30;82.70;;;;;;4364687;32;20163;-92
2021/06/07 07:40:25;;;;;;;4.97;2.90;;;21.40;83.20;;;;;;4364897;32;20175;-89
2021/06/07 07:42:57;;;;;;;5.23;2.77;;;21.50;77.90;;;;;;4379364;32;20153;-90
2021/06/07 07:45:27;;;;;;;5.77;3.43;;;21.40;80.70;;;;;;4368896;32;20473;-92
2021/06/07 07:47:58;;;;;;;5.37;3.10;;;21.50;76.80;;;;;;4380481;32;20139;-91
2021/06/07 07:50:26;;;;;;;5.67;2.97;;;21.40;74.50;;;;;;4380429;32;20182;-94
2021/06/07 07:52:53;;;;;;;4.00;3.03;;;21.40;72.80;;;;;;4367393;32;20217;-92
2021/06/07 07:55:25;;;;;;;3.97;3.03;;;21.50;75.10;;;;;;4354706;32;20163;-92
2021/06/07 07:57:53;;;;;;;4.83;3.30;;;21.60;78.60;;;;;;4380359;32;20466;-91
2021/06/07 08:00:27;;;;;;;4.07;2.90;;;21.70;79.50;;;;;;4381115;32;20136;-90
2021/06/07 08:02:54;;;;;;;4.33;3.00;;;21.70;75.90;;;;;;4381005;32;20443;-91
2021/06/07 08:05:21;;;;;;;4.10;3.30;;;21.90;78.20;;;;;;4380911;32;20132;-91
2021/06/07 08:07:48;;;;;;;9.53;2.87;;;22.00;77.50;;;;;;4380680;32;20158;-91
2021/06/07 08:10:16;;;;;;;4.97;3.10;;;22.00;74.30;;;;;;4380902;32;20271;-91
2021/06/07 08:12:43;;;;;;;5.10;3.20;;;22.10;75.50;;;;;;4379805;32;20170;-89
2021/06/07 08:15:10;;;;;;;5.30;3.10;;;22.30;75.60;;;;;;4368501;32;20201;-89
2021/06/07 08:17:37;;;;;;;4.20;2.90;;;22.30;74.30;;;;;;4367203;32;20356;-89
2021/06/07 08:20:07;;;;;;;4.17;3.20;;;22.50;73.70;;;;;;4381655;32;20144;-90
2021/06/07 08:22:34;;;;;;;5.30;3.30;;;22.60;72.90;;;;;;4379951;32;20216;-88
2021/06/07 08:25:01;;;;;;;5.75;3.25;;;23.30;71.60;;;;;;4381147;32;20193;-86
2021/06/07 08:27:29;;;;;;;6.47;3.60;;;24.10;64.60;;;;;;4381014;32;20162;-85
2021/06/07 08:29:56;;;;;;;7.97;3.72;;;24.70;61.20;;;;;;4380460;32;20144;-84
2021/06/07 08:32:23;;;;;;;7.18;4.07;;;25.30;58.40;;;;;;4380300;32;20336;-82
2021/06/07 08:34:50;;;;;;;6.22;3.60;;;25.70;58.50;;;;;;4380577;32;20185;-85
2021/06/07 08:37:17;;;;;;;15.52;4.22;;;26.20;60.40;;;;;;4380520;32;20159;-82
2021/06/07 08:39:44;;;;;;;4.80;3.67;;;27.00;62.30;;;;;;4380251;32;20140;-83
2021/06/07 08:42:12;;;;;;;5.65;3.40;;;27.20;55.00;;;;;;4380545;32;20391;-83
2021/06/07 08:44:39;;;;;;;7.40;3.70;;;27.60;54.20;;;;;;4366751;32;20139;-83
2021/06/07 08:47:07;;;;;;;8.15;3.60;;;28.10;53.30;;;;;;4380281;32;20185;-82
2021/06/07 08:49:34;;;;;;;4.57;3.58;;;28.00;53.00;;;;;;4379970;32;20155;-81
2021/06/07 08:52:02;;;;;;;6.30;3.90;;;28.30;53.70;;;;;;4380254;32;20450;-81
2021/06/07 08:54:30;;;;;;;4.80;3.60;;;28.10;50.00;;;;;;4379185;32;20400;-81
2021/06/07 08:56:57;;;;;;;5.68;3.72;;;28.00;52.00;;;;;;4381326;32;20473;-80
2021/06/07 08:59:24;;;;;;;6.75;4.47;;;28.20;49.80;;;;;;4379947;32;20140;-79
2021/06/07 09:01:54;;;;;;;6.03;3.53;;;28.40;51.60;;;;;;4381258;32;20128;-79
2021/06/07 09:04:24;;;;;;;4.60;3.70;;;28.50;51.00;;;;;;4381698;32;20162;-80
2021/06/07 09:06:51;;;;;;;3.85;3.47;;;28.70;50.70;;;;;;4379806;32;20147;-78
2021/06/07 09:09:22;;;;;;;6.47;3.83;;;29.00;48.20;;;;;;4381166;32;20144;-79
2021/06/07 09:12:06;;;;;;;4.75;3.60;;;28.80;49.40;;;;;;4381122;32;20177;-80
2021/06/07 09:14:39;;;;;;;6.97;3.72;;;29.00;49.80;;;;;;4379757;32;20174;-79
2021/06/07 09:17:20;;;;;;;4.65;3.80;;;29.10;48.60;;;;;;4380849;32;20143;-79
2021/06/07 09:19:47;;;;;;;5.80;3.95;;;29.10;50.50;;;;;;4380005;32;20177;-79
2021/06/07 09:22:25;;;;;;;7.72;4.30;;;28.40;49.50;;;;;;4379567;32;20140;-78
2021/06/07 09:25:06;;;;;;;6.22;3.78;;;28.70;48.60;;;;;;4381201;32;20162;-78
2021/06/07 09:27:34;;;;;;;6.22;3.75;;;28.40;47.50;;;;;;4366478;32;20173;-78
2021/06/07 09:30:01;;;;;;;4.87;3.83;;;28.70;48.90;;;;;;4379737;32;20166;-78
2021/06/07 09:32:28;;;;;;;6.35;3.97;;;28.70;48.70;;;;;;4379412;32;20193;-78
2021/06/07 09:35:07;;;;;;;5.95;4.00;;;28.50;49.30;;;;;;4379501;32;20336;-78
2021/06/07 09:37:34;;;;;;;4.82;4.30;;;28.40;49.90;;;;;;4379735;32;20434;-78
2021/06/07 09:40:20;;;;;;;5.75;4.20;;;28.50;48.20;;;;;;4379928;32;20159;-77
2021/06/07 09:42:57;;;;;;;5.55;3.80;;;28.20;47.20;;;;;;4379339;32;20178;-76
2021/06/07 09:45:49;;;;;;;5.30;4.10;;;28.50;47.20;;;;;;4376120;32;20317;-77
2021/06/07 09:48:17;;;;;;;5.00;3.85;;;28.10;46.50;;;;;;4379476;32;20159;-78
2021/06/07 09:51:04;;;;;;;4.53;3.72;;;27.90;47.90;;;;;;4378685;32;20148;-69
2021/06/07 09:53:51;;;;;;;4.25;3.85;;;27.80;47.60;;;;;;4379342;32;20186;-70
2021/06/07 09:56:19;;;;;;;6.87;4.00;;;27.90;47.20;;;;;;4379273;32;20420;-70
2021/06/07 09:58:47;;;;;;;5.47;3.92;;;28.60;48.70;;;;;;4379534;32;20156;-70
2021/06/07 10:01:16;;;;;;;4.32;3.92;;;29.00;48.50;;;;;;4378818;32;20174;-70
2021/06/07 10:03:49;;;;;;;6.72;4.30;;;29.40;45.90;;;;;;4379458;32;20233;-69
2021/06/07 10:06:22;;;;;;;5.15;3.70;;;29.80;45.80;;;;;;4379333;32;20140;-70
2021/06/07 10:08:58;;;;;;;7.35;3.78;;;29.60;44.10;;;;;;4366706;32;20159;-69
2021/06/07 10:11:40;;;;;;;4.80;3.90;;;29.80;43.70;;;;;;4372800;32;20235;-67
2021/06/07 10:14:15;;;;;;;4.70;3.80;;;29.90;43.00;;;;;;4379135;32;20198;-69
2021/06/07 10:17:11;;;;;;;4.50;3.72;;;29.90;44.60;;;;;;4380340;32;20161;-69
2021/06/07 10:22:13;;;;;;;4.85;4.00;;;30.70;43.20;;;;;;4316140;33;20279;-68
2021/06/07 10:24:40;;;;;;;6.00;3.40;;;31.00;41.40;;;;;;4317440;33;20188;-69
2021/06/07 10:27:07;;;;;;;5.93;4.12;;;30.50;41.30;;;;;;4318996;33;20438;-69
2021/06/07 10:29:38;;;;;;;7.22;4.25;;;31.10;44.70;;;;;;4316813;33;20207;-71
2021/06/07 10:32:18;;;;;;;8.52;3.90;;;31.80;42.50;;;;;;4309420;33;20538;-69
2021/06/07 10:34:47;;;;;;;6.93;4.03;;;32.30;41.30;;;;;;4317336;33;20180;-70
2021/06/07 10:37:14;;;;;;;5.85;4.28;;;32.20;39.80;;;;;;4317398;33;20262;-69
2021/06/07 10:39:42;;;;;;;6.07;3.65;;;32.40;40.40;;;;;;4318812;33;20149;-70
2021/06/07 10:42:29;;;;;;;4.97;3.97;;;32.40;40.30;;;;;;4313757;33;20213;-70
2021/06/07 10:45:04;;;;;;;7.18;3.95;;;32.40;38.90;;;;;;4318194;33;20157;-69
2021/06/07 10:47:46;;;;;;;7.43;4.07;;;32.40;39.50;;;;;;4318991;33;20160;-69
2021/06/07 10:50:18;;;;;;;8.48;3.83;;;32.90;39.10;;;;;;4307322;33;20157;-69
2021/06/07 10:52:57;;;;;;;8.82;4.15;;;33.30;39.60;;;;;;4316460;33;20589;-70
2021/06/07 10:55:36;;;;;;;7.45;4.10;;;33.50;37.90;;;;;;4326748;33;20190;-69
2021/06/07 10:58:05;;;;;;;4.45;3.47;;;33.40;39.30;;;;;;4373591;32;20148;-69
2021/06/07 11:00:39;;;;;;;8.52;4.07;;;33.60;36.60;;;;;;4379348;32;20170;-69
2021/06/07 11:03:21;;;;;;;4.32;3.65;;;33.70;37.50;;;;;;4378742;32;20483;-69
2021/06/07 11:27:57;;;;;;;4.60;4.20;;;32.50;37.90;;;;;;4453114;32;20303;-69
2021/06/07 11:30:24;;;;;;;6.93;4.20;;;31.80;40.60;;;;;;4453968;32;20161;-70
2021/06/07 11:33:05;;;;;;;4.47;3.85;;;32.00;40.20;;;;;;4453734;32;20507;-70
2021/06/07 11:35:41;;;;;;;6.30;4.40;;;32.20;38.70;;;;;;4449973;32;20184;-70
2021/06/07 11:38:34;;;;;;;5.90;4.00;;;32.00;38.70;;;;;;4449089;32;20498;-71
2021/06/07 11:41:04;;;;;;;6.55;4.10;;;32.20;38.20;;;;;;4451501;32;20529;-70
2021/06/07 11:43:46;;;;;;;5.95;4.65;;;32.80;40.60;;;;;;4452339;32;20185;-69
2021/06/07 11:46:31;;;;;;;5.32;3.90;;;32.40;37.70;;;;;;4453590;32;20142;-70
2021/06/07 11:49:08;;;;;;;6.12;4.20;;;33.40;37.70;;;;;;4454229;32;20476;-68
2021/06/07 11:51:36;;;;;;;5.85;4.07;;;33.80;37.60;;;;;;4452789;32;20179;-70
2021/06/07 11:54:29;;;;;;;4.60;3.90;;;34.60;38.10;;;;;;4452292;32;20452;-70
2021/06/07 11:57:00;;;;;;;5.10;4.43;;;34.50;35.90;;;;;;4453506;32;20172;-69
2021/06/07 11:59:32;;;;;;;5.35;4.10;;;34.00;35.90;;;;;;4453384;32;20142;-69
2021/06/07 12:01:59;;;;;;;4.50;4.05;;;34.30;36.50;;;;;;4453895;32;20150;-70
2021/06/07 12:04:29;;;;;;;4.37;3.85;;;34.30;35.70;;;;;;4453520;32;20188;-69
2021/06/07 12:07:00;;;;;;;4.22;3.78;;;34.70;36.00;;;;;;4451973;32;20143;-72
2021/06/07 12:09:28;;;;;;;5.22;3.53;;;34.00;35.80;;;;;;4450254;32;20177;-70
2021/06/07 12:11:56;;;;;;;4.90;3.62;;;33.80;36.70;;;;;;4449893;32;20154;-70
2021/06/07 12:14:30;;;;;;;4.97;3.75;;;33.10;36.10;;;;;;4450374;32;20215;-69
2021/06/07 12:17:10;;;;;;;6.43;3.75;;;32.20;37.30;;;;;;4451745;32;20141;-70
2021/06/07 12:19:42;;;;;;;4.95;3.90;;;31.60;39.40;;;;;;4453454;32;20129;-69
2021/06/07 12:22:37;;;;;;;9.18;4.50;;;30.90;39.60;;;;;;4452288;32;20135;-70
2021/06/07 12:28:19;;;;;;;15.20;4.45;;;31.70;40.20;;;;;;4446286;32;20158;-70
2021/06/07 12:30:53;;;;;;;10.43;4.78;;;32.30;39.00;;;;;;4440136;32;20186;-68
2021/06/07 12:33:29;;;;;;;5.25;3.75;;;32.60;37.90;;;;;;4443172;32;20143;-69
2021/06/07 12:35:56;;;;;;;4.82;4.00;;;30.80;37.10;;;;;;4441653;32;20191;-68
2021/06/07 12:38:23;;;;;;;6.68;4.20;;;31.10;39.80;;;;;;4441563;32;20379;-70
2021/06/07 12:40:51;;;;;;;6.15;3.92;;;32.10;37.90;;;;;;4442186;32;20463;-69
2021/06/07 12:43:25;;;;;;;6.53;3.70;;;32.20;36.70;;;;;;4443059;32;20139;-69
2021/06/07 12:45:55;;;;;;;6.82;3.50;;;32.30;37.90;;;;;;4441438;32;20158;-70
2021/06/07 12:48:26;;;;;;;8.55;3.95;;;33.00;36.30;;;;;;4442650;32;20434;-70
2021/06/07 12:51:09;;;;;;;8.07;4.03;;;33.50;35.80;;;;;;4441434;32;20141;-70
2021/06/07 12:53:44;;;;;;;6.10;3.78;;;34.00;36.20;;;;;;4441189;32;20131;-71
2021/06/07 12:56:27;;;;;;;7.22;3.85;;;33.60;34.60;;;;;;4441553;32;20146;-70
2021/06/07 12:58:58;;;;;;;7.70;4.00;;;33.20;36.30;;;;;;4441371;32;20150;-71
2021/06/07 13:01:36;;;;;;;3.92;3.25;;;32.20;36.10;;;;;;4443249;32;20139;-71
2021/06/07 13:04:04;;;;;;;5.97;3.50;;;32.00;36.90;;;;;;4441437;32;20134;-69
2021/06/07 13:06:44;;;;;;;4.70;3.53;;;32.40;38.00;;;;;;4440128;32;20194;-71
2021/06/07 13:09:12;;;;;;;4.25;3.40;;;32.40;36.30;;;;;;4438671;32;20360;-72
2021/06/07 13:11:41;;;;;;;5.62;4.12;;;31.60;36.90;;;;;;4440697;32;20207;-71
2021/06/07 13:14:18;;;;;;;8.27;4.68;;;31.90;37.50;;;;;;4440895;32;20143;-72
2021/06/07 13:16:45;;;;;;;7.62;3.90;;;32.00;37.60;;;;;;4441241;32;20416;-70
2021/06/07 13:19:13;;;;;;;6.03;3.65;;;31.90;37.90;;;;;;4438640;32;20224;-70
2021/06/07 13:21:54;;;;;;;4.90;3.40;;;32.30;38.40;;;;;;4435868;32;20154;-72
2021/06/07 13:24:26;;;;;;;6.75;3.70;;;32.60;38.00;;;;;;4435160;32;20151;-72
2021/06/07 13:26:58;;;;;;;5.12;3.50;;;32.90;36.60;;;;;;4424355;32;20213;-70